Terminal Aerodrome Forecast
Issued by NWS

Home | Current Version | Previous Version | Text Only | Print | Product List | Glossary On
Versions: 1 2 3 4 5 6 7 8 9 10 11 12 13 14 15 16 17 18 19
053
FTUS44 KLZK 281737
TAFPBF
TAF
KPBF 281737Z 2818/2918 17013G22KT P6SM BKN017 BKN024
     FM282000 18012G20KT P6SM SCT025 BKN035
     FM290200 17012G18KT P6SM SCT015 OVC025
     FM290800 16012G18KT P6SM OVC015=

USA.gov is the U.S. government's official web portal to all federal, state and local government web resources and services.